createdAt,value
2023-07-17T00:01:52.503Z,76.10
2023-07-17T00:04:20.243Z,76.50
2023-07-17T00:06:48.145Z,76.97
2023-07-17T00:09:16.353Z,77.53
2023-07-17T00:11:44.664Z,77.61
2023-07-17T00:14:12.789Z,78.08
2023-07-17T00:16:41.979Z,78.71
2023-07-17T00:19:10.024Z,79.05
2023-07-17T00:21:38.178Z,79.39
2023-07-17T00:24:06.298Z,80.12
2023-07-17T00:26:34.245Z,80.65
2023-07-17T00:29:24.374Z,81.32
2023-07-17T00:31:54.307Z,81.01
2023-07-17T00:34:22.884Z,81.62
2023-07-17T00:36:50.868Z,81.51
2023-07-17T00:39:20.312Z,81.10
2023-07-17T00:41:48.812Z,81.22
2023-07-17T00:44:16.719Z,80.82
2023-07-17T00:46:45.867Z,81.05
2023-07-17T00:49:15.802Z,80.69
2023-07-17T00:51:44.720Z,80.33
2023-07-17T00:54:15.782Z,80.00
2023-07-17T00:56:45.759Z,80.23
2023-07-17T00:59:14.585Z,80.03
2023-07-17T01:01:43.449Z,79.82
2023-07-17T01:04:11.177Z,80.11
2023-07-17T01:06:41.648Z,80.22
2023-07-17T01:09:10.291Z,79.87
2023-07-17T01:11:38.376Z,80.01
2023-07-17T01:14:06.404Z,80.09
2023-07-17T01:16:38.102Z,80.31
2023-07-17T01:19:05.852Z,79.91
2023-07-17T01:21:39.899Z,80.22
2023-07-17T01:24:09.342Z,79.68
2023-07-17T01:26:37.176Z,80.01
2023-07-17T01:29:05.301Z,80.86
2023-07-17T01:31:33.617Z,80.71
2023-07-17T01:34:01.724Z,80.63
2023-07-17T01:36:29.507Z,81.22
2023-07-17T01:38:58.329Z,81.83
2023-07-17T01:41:27.787Z,83.37
2023-07-17T01:43:58.168Z,84.63
2023-07-17T01:46:26.562Z,85.61
2023-07-17T01:48:54.403Z,88.09
2023-07-17T01:51:22.379Z,88.63
2023-07-17T01:53:50.110Z,89.56
2023-07-17T01:56:17.917Z,89.59
2023-07-17T01:58:47.970Z,89.82
2023-07-17T02:04:22.100Z,89.85
2023-07-17T02:06:49.939Z,91.13
2023-07-17T02:09:17.852Z,91.59
2023-07-17T02:11:45.619Z,92.62
2023-07-17T02:14:15.175Z,93.22
2023-07-17T02:16:42.989Z,93.28
2023-07-17T02:19:10.766Z,93.41
2023-07-17T02:21:38.714Z,93.69
2023-07-17T02:24:07.945Z,93.12
2023-07-17T02:26:35.684Z,92.78
2023-07-17T02:29:04.000Z,93.04
2023-07-17T02:31:33.380Z,94.18
2023-07-17T02:34:01.241Z,96.39
2023-07-17T02:36:30.124Z,97.30
2023-07-17T02:38:57.905Z,97.80
2023-07-17T02:41:26.010Z,98.12
2023-07-17T02:43:54.119Z,98.41
2023-07-17T02:46:22.669Z,99.15
2023-07-17T02:48:51.771Z,97.89
2023-07-17T02:51:20.361Z,97.64
2023-07-17T02:53:48.532Z,97.54
2023-07-17T02:56:16.264Z,97.91
2023-07-17T02:58:44.931Z,97.89
2023-07-17T03:01:13.004Z,97.44
2023-07-17T03:03:41.390Z,97.83
2023-07-17T03:06:10.487Z,97.57
2023-07-17T03:08:38.189Z,97.92
2023-07-17T03:11:06.673Z,98.08
2023-07-17T03:13:34.535Z,98.76
2023-07-17T03:16:02.438Z,100.00
2023-07-17T03:18:30.864Z,100.00
2023-07-17T03:20:59.029Z,100.00
2023-07-17T03:23:28.500Z,100.00
2023-07-17T03:25:58.034Z,100.00
2023-07-17T03:28:26.080Z,100.00
2023-07-17T03:30:55.541Z,100.00
2023-07-17T03:33:23.782Z,100.00
2023-07-17T03:35:51.588Z,100.00
2023-07-17T03:38:20.383Z,100.00
2023-07-17T03:40:49.678Z,100.00
2023-07-17T03:43:17.489Z,100.00
2023-07-17T03:45:47.690Z,100.00
2023-07-17T03:48:16.089Z,100.00
2023-07-17T03:50:44.370Z,100.00
2023-07-17T03:53:12.397Z,100.00
2023-07-17T03:55:40.763Z,100.00
2023-07-17T03:58:10.237Z,100.00
2023-07-17T04:00:38.508Z,100.00
2023-07-17T04:03:09.528Z,100.00
2023-07-17T04:05:41.437Z,100.00
2023-07-17T04:08:10.912Z,100.00
2023-07-17T04:10:38.812Z,100.00
2023-07-17T04:13:06.642Z,100.00
2023-07-17T04:15:36.982Z,100.00
2023-07-17T04:18:06.241Z,100.00
2023-07-17T04:20:34.762Z,100.00
2023-07-17T04:23:02.639Z,100.00
2023-07-17T04:25:30.594Z,100.00
2023-07-17T04:27:58.621Z,100.00
2023-07-17T04:30:26.719Z,100.00
2023-07-17T04:32:56.952Z,100.00
2023-07-17T04:35:25.034Z,100.00
2023-07-17T04:37:56.469Z,100.00
2023-07-17T04:40:24.741Z,100.00
2023-07-17T04:42:53.764Z,100.00
2023-07-17T04:45:21.881Z,100.00
2023-07-17T04:48:11.889Z,100.00
2023-07-17T04:50:40.282Z,100.00
2023-07-17T04:53:08.318Z,100.00
2023-07-17T04:55:36.188Z,100.00
2023-07-17T04:58:04.364Z,100.00
2023-07-17T05:00:35.373Z,100.00
2023-07-17T05:03:03.253Z,100.00
2023-07-17T05:05:33.076Z,100.00
2023-07-17T05:08:00.958Z,100.00
2023-07-17T05:10:29.852Z,100.00
2023-07-17T05:12:57.589Z,100.00
2023-07-17T05:15:25.573Z,100.00
2023-07-17T05:17:53.333Z,100.00
2023-07-17T05:20:21.484Z,100.00
2023-07-17T05:22:50.633Z,100.00
2023-07-17T05:25:18.635Z,100.00
2023-07-17T05:27:47.534Z,100.00
2023-07-17T05:30:17.529Z,100.00
2023-07-17T05:32:45.505Z,100.00
2023-07-17T05:35:13.399Z,100.00
2023-07-17T05:37:41.344Z,99.35
2023-07-17T05:40:12.471Z,97.72
2023-07-17T05:42:41.137Z,95.28
2023-07-17T05:45:11.479Z,89.74
2023-07-17T05:47:41.442Z,88.79
2023-07-17T05:50:12.113Z,88.14
2023-07-17T05:52:41.383Z,88.98
2023-07-17T05:55:09.823Z,88.42
2023-07-17T05:57:41.700Z,86.89
2023-07-17T06:00:12.595Z,85.18
2023-07-17T06:02:44.451Z,84.40
2023-07-17T06:05:13.468Z,84.65
2023-07-17T06:07:42.289Z,84.99
2023-07-17T06:10:13.874Z,81.24
2023-07-17T06:12:44.685Z,79.90
2023-07-17T06:15:14.875Z,80.66
2023-07-17T06:17:43.826Z,80.77
2023-07-17T06:20:13.616Z,80.96
2023-07-17T06:22:44.640Z,79.53
2023-07-17T06:25:13.770Z,79.15
2023-07-17T06:27:44.158Z,80.85
2023-07-17T06:30:13.685Z,82.85
2023-07-17T06:32:43.651Z,79.69
2023-07-17T06:35:12.718Z,78.95
2023-07-17T06:37:41.659Z,74.51
2023-07-17T06:40:12.031Z,72.25
2023-07-17T06:42:41.543Z,69.33
2023-07-17T06:45:12.675Z,68.78
2023-07-17T06:47:42.499Z,68.13
2023-07-17T06:50:11.475Z,68.90
2023-07-17T06:52:40.058Z,68.23
2023-07-17T06:55:09.962Z,65.22
2023-07-17T06:57:37.777Z,63.79
2023-07-17T07:00:07.848Z,63.54
2023-07-17T07:02:38.568Z,62.86
2023-07-17T07:05:08.598Z,63.01
2023-07-17T07:07:36.303Z,62.68
2023-07-17T07:10:04.241Z,61.53
2023-07-17T07:12:31.910Z,64.07
2023-07-17T07:14:59.626Z,64.74
2023-07-17T07:17:28.195Z,64.56
2023-07-17T07:19:57.426Z,64.16
2023-07-17T07:22:25.639Z,63.38
2023-07-17T07:24:53.296Z,62.13
2023-07-17T07:27:22.373Z,60.18
2023-07-17T07:29:50.150Z,60.62
2023-07-17T07:32:17.850Z,60.09
2023-07-17T07:34:45.582Z,61.25
2023-07-17T07:37:14.624Z,60.75
2023-07-17T07:39:42.732Z,60.06
2023-07-17T07:42:10.896Z,59.08
2023-07-17T07:44:38.515Z,59.67
2023-07-17T07:47:07.723Z,57.96
2023-07-17T07:49:35.440Z,55.70
2023-07-17T07:52:03.201Z,55.98
2023-07-17T07:54:32.725Z,56.19
2023-07-17T07:57:00.791Z,55.43
2023-07-17T07:59:29.108Z,55.58
2023-07-17T08:01:56.933Z,56.10
2023-07-17T08:04:24.769Z,55.86
2023-07-17T08:06:52.815Z,54.63
2023-07-17T08:09:20.774Z,54.92
2023-07-17T08:11:49.827Z,53.80
2023-07-17T08:14:17.807Z,54.41
2023-07-17T08:16:46.092Z,53.61
2023-07-17T08:19:14.328Z,52.61
2023-07-17T08:21:42.043Z,52.50
2023-07-17T08:24:10.696Z,53.09
2023-07-17T08:26:39.703Z,51.41
2023-07-17T08:29:10.010Z,49.49
2023-07-17T08:31:38.743Z,48.53
2023-07-17T08:34:06.608Z,48.43
2023-07-17T08:36:35.110Z,46.77
2023-07-17T08:39:05.874Z,47.29
2023-07-17T08:41:33.864Z,48.62
2023-07-17T08:44:03.588Z,47.67
2023-07-17T08:46:33.742Z,48.93
2023-07-17T08:49:04.026Z,47.07
2023-07-17T08:51:33.048Z,46.66
2023-07-17T08:54:27.128Z,46.47
2023-07-17T08:56:52.331Z,46.51
2023-07-17T08:59:22.470Z,45.50
2023-07-17T09:01:52.073Z,45.96
2023-07-17T09:04:21.210Z,45.59
2023-07-17T09:06:49.447Z,44.36
2023-07-17T09:09:18.300Z,41.54
2023-07-17T09:11:46.199Z,39.76
2023-07-17T09:14:13.955Z,38.45
2023-07-17T09:16:41.857Z,38.67
2023-07-17T09:19:11.041Z,39.26
2023-07-17T09:21:43.271Z,38.82
2023-07-17T09:24:11.081Z,38.31
2023-07-17T09:26:39.325Z,38.65
2023-07-17T09:29:07.863Z,38.12
2023-07-17T09:31:35.702Z,38.33
2023-07-17T09:34:13.320Z,38.11
2023-07-17T09:36:42.744Z,37.50
2023-07-17T09:39:12.204Z,39.08
2023-07-17T09:41:40.474Z,38.00
2023-07-17T09:44:10.147Z,38.80
2023-07-17T09:46:40.109Z,37.10
2023-07-17T09:49:09.205Z,36.54
2023-07-17T09:51:37.735Z,38.34
2023-07-17T09:54:07.288Z,38.66
2023-07-17T09:56:35.796Z,38.46
2023-07-17T09:59:14.940Z,37.20
2023-07-17T10:01:45.387Z,34.95
2023-07-17T10:04:18.594Z,33.16
2023-07-17T10:06:48.725Z,31.23
2023-07-17T10:09:21.894Z,29.92
2023-07-17T10:11:50.456Z,28.42
2023-07-17T10:14:18.528Z,29.06
2023-07-17T10:16:46.425Z,28.88
2023-07-17T10:19:14.124Z,28.36
2023-07-17T10:21:55.222Z,27.67
2023-07-17T10:24:25.989Z,26.78
2023-07-17T10:26:54.193Z,26.62
2023-07-17T10:29:31.854Z,25.43
2023-07-17T10:32:00.053Z,25.77
2023-07-17T10:34:49.445Z,25.50
2023-07-17T10:37:40.277Z,25.47
2023-07-17T10:40:27.936Z,25.40
2023-07-17T10:42:56.679Z,26.65
2023-07-17T10:45:36.075Z,26.05
2023-07-17T10:48:04.329Z,25.42
2023-07-17T10:50:32.097Z,25.35
2023-07-17T10:53:03.879Z,24.65
2023-07-17T10:55:33.676Z,24.26
2023-07-17T10:58:02.673Z,24.05
2023-07-17T11:00:31.493Z,24.36
2023-07-17T11:03:00.994Z,23.20
2023-07-17T11:05:28.915Z,22.69
2023-07-17T11:07:58.731Z,24.13
2023-07-17T11:10:27.273Z,24.42
2023-07-17T11:13:03.461Z,24.34
2023-07-17T11:15:33.766Z,23.54
2023-07-17T11:18:02.354Z,24.89
2023-07-17T11:20:31.364Z,24.86
2023-07-17T11:23:00.294Z,24.83
2023-07-17T11:25:29.900Z,23.80
2023-07-17T11:28:02.585Z,25.68
2023-07-17T11:30:33.466Z,25.35
2023-07-17T11:33:07.011Z,24.42
2023-07-17T11:35:42.603Z,24.99
2023-07-17T11:38:11.848Z,24.92
2023-07-17T11:41:03.152Z,24.83
2023-07-17T11:43:34.727Z,25.15
2023-07-17T11:46:05.208Z,26.49
2023-07-17T11:48:34.646Z,25.23
2023-07-17T11:51:05.421Z,26.61
2023-07-17T11:53:33.714Z,25.67
2023-07-17T11:56:03.668Z,24.97
2023-07-17T11:58:37.810Z,24.93
2023-07-17T12:01:08.125Z,26.46
2023-07-17T12:03:35.949Z,25.13
2023-07-17T12:06:04.744Z,28.64
2023-07-17T12:08:32.538Z,30.59
2023-07-17T12:11:00.332Z,31.40
2023-07-17T12:13:28.175Z,29.18
2023-07-17T12:15:57.839Z,27.57
2023-07-17T12:18:26.198Z,29.02
2023-07-17T12:20:54.481Z,28.69
2023-07-17T12:23:23.073Z,29.81
2023-07-17T12:25:50.895Z,30.93
2023-07-17T12:28:18.676Z,28.50
2023-07-17T12:30:47.086Z,28.18
2023-07-17T12:33:16.505Z,29.74
2023-07-17T12:35:46.227Z,30.36
2023-07-17T12:38:13.974Z,28.51
2023-07-17T12:40:42.113Z,27.65
2023-07-17T12:43:10.119Z,27.88
2023-07-17T12:45:38.183Z,26.62
2023-07-17T12:48:08.053Z,28.92
2023-07-17T12:50:38.056Z,32.50
2023-07-17T12:53:06.731Z,31.32
2023-07-17T12:55:34.617Z,28.52
2023-07-17T12:58:03.566Z,28.42
2023-07-17T13:00:31.864Z,29.33
2023-07-17T13:02:59.761Z,27.65
2023-07-17T13:05:27.547Z,27.85
2023-07-17T13:07:56.585Z,28.23
2023-07-17T13:10:24.586Z,27.08
2023-07-17T13:12:52.475Z,28.13
2023-07-17T13:15:20.452Z,27.30
2023-07-17T13:17:48.185Z,26.34
2023-07-17T13:20:16.417Z,27.28
2023-07-17T13:22:44.201Z,27.88
2023-07-17T13:25:13.660Z,27.84
2023-07-17T13:27:41.352Z,28.23
2023-07-17T13:30:10.567Z,27.30
2023-07-17T13:32:39.811Z,26.94
2023-07-17T13:35:08.990Z,27.47
2023-07-17T13:37:37.286Z,27.52
2023-07-17T13:40:06.272Z,27.55
2023-07-17T13:42:35.708Z,27.49
2023-07-17T13:45:03.408Z,27.95
2023-07-17T13:47:31.861Z,28.38
2023-07-17T13:49:59.867Z,28.00
2023-07-17T13:52:27.595Z,28.25
2023-07-17T13:54:56.487Z,27.94
2023-07-17T13:57:24.526Z,28.58
2023-07-17T13:59:54.260Z,28.98
2023-07-17T14:02:22.895Z,29.13
2023-07-17T14:04:50.891Z,31.83
2023-07-17T14:07:19.568Z,31.84
2023-07-17T14:09:47.933Z,30.93
2023-07-17T14:12:15.779Z,31.56
2023-07-17T14:14:43.552Z,32.65
2023-07-17T14:17:12.971Z,32.83
2023-07-17T14:19:41.121Z,32.64
2023-07-17T14:22:09.161Z,33.10
2023-07-17T14:24:37.047Z,33.07
2023-07-17T14:27:05.401Z,32.71
2023-07-17T14:29:33.086Z,32.41
2023-07-17T14:32:01.185Z,33.20
2023-07-17T14:34:30.401Z,33.55
2023-07-17T14:36:58.900Z,32.88
2023-07-17T14:39:28.613Z,33.84
2023-07-17T14:41:56.339Z,33.53
2023-07-17T14:44:26.594Z,33.31
2023-07-17T14:46:54.522Z,32.95
2023-07-17T14:49:32.700Z,33.78
2023-07-17T14:52:02.333Z,32.15
2023-07-17T14:54:30.004Z,32.52
2023-07-17T14:56:57.841Z,32.15
2023-07-17T14:59:25.860Z,32.25
2023-07-17T15:01:54.083Z,32.90
2023-07-17T15:04:22.455Z,32.59
2023-07-17T15:06:50.275Z,32.09
2023-07-17T15:09:20.222Z,32.88
2023-07-17T15:11:47.999Z,32.90
2023-07-17T15:14:26.084Z,33.37
2023-07-17T15:16:54.944Z,33.45
2023-07-17T15:19:22.711Z,34.17
2023-07-17T15:21:50.562Z,33.14
2023-07-17T15:24:20.094Z,33.45
2023-07-17T15:26:47.831Z,34.59
2023-07-17T15:29:16.138Z,34.07
2023-07-17T15:31:44.159Z,33.93
2023-07-17T15:34:11.858Z,33.86
2023-07-17T15:36:40.169Z,34.03
2023-07-17T15:39:08.586Z,33.52
2023-07-17T15:41:38.038Z,34.08
2023-07-17T15:44:06.186Z,33.72
2023-07-17T15:46:34.909Z,34.13
2023-07-17T15:49:02.677Z,33.63
2023-07-17T15:51:30.484Z,34.15
2023-07-17T15:53:58.184Z,32.93
2023-07-17T15:56:26.233Z,33.48
2023-07-17T15:58:55.705Z,33.82
2023-07-17T16:01:24.703Z,33.06
2023-07-17T16:03:52.881Z,33.75
2023-07-17T16:06:21.102Z,33.49
2023-07-17T16:08:48.945Z,33.09
2023-07-17T16:11:16.784Z,33.39
2023-07-17T16:13:44.504Z,34.65
2023-07-17T16:16:13.572Z,34.71
2023-07-17T16:18:41.488Z,34.85
2023-07-17T16:21:09.325Z,34.62
2023-07-17T16:23:37.038Z,35.17
2023-07-17T16:26:06.398Z,35.00
2023-07-17T16:28:34.420Z,35.71
2023-07-17T16:31:02.398Z,35.12
2023-07-17T16:33:31.564Z,34.13
2023-07-17T16:35:59.509Z,33.53
2023-07-17T16:38:27.552Z,34.15
2023-07-17T16:40:55.345Z,33.89
2023-07-17T16:43:23.127Z,34.37
2023-07-17T16:45:53.777Z,35.77
2023-07-17T16:48:22.188Z,35.82
2023-07-17T16:50:51.571Z,35.76
2023-07-17T16:53:19.323Z,35.95
2023-07-17T16:55:47.093Z,35.76
2023-07-17T16:58:16.432Z,34.83
2023-07-17T17:00:44.178Z,34.87
2023-07-17T17:03:12.375Z,35.19
2023-07-17T17:05:41.198Z,36.33
2023-07-17T17:08:10.342Z,35.46
2023-07-17T17:10:38.267Z,34.66
2023-07-17T17:13:06.121Z,34.71
2023-07-17T17:15:33.926Z,33.94
2023-07-17T17:18:01.962Z,34.77
2023-07-17T17:20:30.119Z,36.32
2023-07-17T17:22:58.563Z,35.10
2023-07-17T17:25:29.274Z,35.29
2023-07-17T17:27:59.242Z,35.48
2023-07-17T17:30:29.600Z,35.50
2023-07-17T17:32:58.712Z,35.40
2023-07-17T17:35:30.192Z,35.08
2023-07-17T17:37:59.291Z,34.93
2023-07-17T17:40:29.241Z,35.25
2023-07-17T17:42:57.826Z,35.01
2023-07-17T17:45:26.623Z,34.94
2023-07-17T17:47:55.073Z,35.04
2023-07-17T17:50:24.414Z,35.22
2023-07-17T17:52:52.748Z,34.82
2023-07-17T17:55:21.450Z,35.41
2023-07-17T17:57:51.356Z,35.70
2023-07-17T18:00:21.113Z,35.46
2023-07-17T18:02:50.043Z,35.38
2023-07-17T18:05:19.153Z,35.34
2023-07-17T18:07:48.367Z,35.50
2023-07-17T18:10:17.486Z,36.01
2023-07-17T18:12:46.154Z,35.69
2023-07-17T18:15:16.295Z,36.46
2023-07-17T18:17:44.647Z,36.74
2023-07-17T18:20:12.700Z,37.70
2023-07-17T18:22:40.755Z,36.84
2023-07-17T18:25:12.580Z,37.14
2023-07-17T18:27:41.036Z,37.73
2023-07-17T18:30:09.688Z,37.21
2023-07-17T18:32:38.865Z,37.62
2023-07-17T18:35:07.676Z,39.03
2023-07-17T18:37:35.777Z,38.59
2023-07-17T18:40:05.677Z,37.90
2023-07-17T18:42:33.395Z,38.97
2023-07-17T18:45:01.221Z,39.03
2023-07-17T18:47:29.623Z,39.55
2023-07-17T18:49:59.377Z,39.85
2023-07-17T18:52:29.735Z,40.07
2023-07-17T18:54:58.358Z,40.23
2023-07-17T18:57:26.667Z,40.66
2023-07-17T18:59:54.568Z,41.29
2023-07-17T19:02:22.416Z,41.27
2023-07-17T19:04:50.276Z,42.58
2023-07-17T19:07:19.332Z,43.07
2023-07-17T19:09:47.923Z,43.32
2023-07-17T19:12:15.975Z,43.79
2023-07-17T19:14:43.741Z,44.03
2023-07-17T19:17:11.523Z,44.44
2023-07-17T19:19:40.556Z,43.96
2023-07-17T19:22:08.334Z,44.92
2023-07-17T19:24:37.654Z,44.40
2023-07-17T19:27:06.379Z,44.90
2023-07-17T19:29:34.644Z,45.08
2023-07-17T19:32:02.477Z,45.00
2023-07-17T19:34:30.493Z,44.81
2023-07-17T19:36:58.220Z,44.76
2023-07-17T19:39:26.082Z,44.64
2023-07-17T19:41:55.486Z,45.28
2023-07-17T19:44:23.419Z,44.79
2023-07-17T19:46:51.402Z,45.23
2023-07-17T19:49:20.344Z,46.15
2023-07-17T19:51:48.286Z,47.35
2023-07-17T19:54:16.829Z,45.85
2023-07-17T19:56:44.579Z,46.96
2023-07-17T19:59:13.788Z,45.96
2023-07-17T20:01:41.671Z,46.47
2023-07-17T20:04:11.748Z,46.46
2023-07-17T20:06:40.097Z,46.74
2023-07-17T20:09:09.038Z,46.08
2023-07-17T20:11:39.833Z,46.85
2023-07-17T20:14:07.621Z,46.48
2023-07-17T20:16:37.295Z,45.50
2023-07-17T20:19:05.057Z,46.08
2023-07-17T20:21:34.309Z,47.34
2023-07-17T20:24:02.610Z,46.46
2023-07-17T20:26:30.346Z,47.12
2023-07-17T20:28:58.138Z,47.06
2023-07-17T20:31:26.091Z,47.91
2023-07-17T20:33:55.438Z,48.72
2023-07-17T20:36:23.270Z,48.37
2023-07-17T20:38:51.879Z,47.77
2023-07-17T20:41:19.887Z,47.83
2023-07-17T20:43:48.676Z,47.32
2023-07-17T20:46:16.477Z,48.08
2023-07-17T20:48:44.689Z,47.66
2023-07-17T20:51:15.303Z,48.21
2023-07-17T20:53:44.216Z,47.84
2023-07-17T20:56:13.062Z,48.56
2023-07-17T20:58:43.932Z,48.28
2023-07-17T21:01:18.105Z,48.33
2023-07-17T21:03:46.772Z,48.55
2023-07-17T21:06:15.966Z,48.91
2023-07-17T21:08:43.680Z,48.35
2023-07-17T21:11:11.798Z,48.54
2023-07-17T21:13:39.994Z,49.10
2023-07-17T21:16:07.947Z,49.28
2023-07-17T21:18:35.632Z,49.67
2023-07-17T21:21:03.566Z,50.07
2023-07-17T21:23:32.765Z,50.45
2023-07-17T21:26:00.483Z,50.97
2023-07-17T21:28:31.390Z,51.25
2023-07-17T21:30:59.415Z,51.16
2023-07-17T21:33:27.560Z,51.33
2023-07-17T21:35:55.786Z,51.39
2023-07-17T21:38:23.640Z,50.81
2023-07-17T21:40:52.762Z,51.01
2023-07-17T21:43:20.492Z,51.49
2023-07-17T21:45:49.570Z,51.37
2023-07-17T21:48:17.241Z,51.40
2023-07-17T21:50:45.131Z,51.60
2023-07-17T21:53:15.293Z,51.07
2023-07-17T21:55:43.624Z,52.02
2023-07-17T21:58:12.674Z,51.25
2023-07-17T22:00:40.327Z,51.73
2023-07-17T22:03:09.380Z,51.76
2023-07-17T22:05:37.170Z,52.76
2023-07-17T22:08:05.224Z,53.79
2023-07-17T22:10:32.934Z,54.14
2023-07-17T22:13:00.867Z,54.42
2023-07-17T22:15:29.981Z,54.26
2023-07-17T22:17:57.729Z,55.25
2023-07-17T22:20:25.845Z,55.96
2023-07-17T22:22:53.579Z,56.03
2023-07-17T22:25:21.289Z,56.24
2023-07-17T22:27:50.561Z,56.41
2023-07-17T22:30:18.505Z,56.66
2023-07-17T22:32:48.018Z,56.93
2023-07-17T22:35:16.657Z,57.83
2023-07-17T22:37:44.750Z,57.88
2023-07-17T22:40:13.260Z,58.25
2023-07-17T22:42:41.000Z,57.97
2023-07-17T22:45:09.924Z,58.04
2023-07-17T22:47:37.662Z,58.65
2023-07-17T22:50:08.045Z,59.00
2023-07-17T22:52:35.873Z,59.06
2023-07-17T22:55:07.026Z,59.56
2023-07-17T22:57:34.779Z,59.54
2023-07-17T23:00:02.735Z,59.90
2023-07-17T23:02:30.779Z,60.34
2023-07-17T23:04:59.709Z,60.72
2023-07-17T23:07:28.935Z,61.18
2023-07-17T23:09:56.963Z,61.20
2023-07-17T23:15:11.212Z,61.36
2023-07-17T23:17:40.694Z,61.19
2023-07-17T23:20:12.272Z,62.27
2023-07-17T23:22:42.709Z,63.28
2023-07-17T23:25:11.366Z,63.99
2023-07-17T23:27:39.646Z,63.33
2023-07-17T23:30:10.147Z,63.74
2023-07-17T23:32:38.089Z,64.32
2023-07-17T23:35:07.079Z,64.97
2023-07-17T23:37:35.181Z,66.66
2023-07-17T23:40:05.310Z,67.30
2023-07-17T23:42:34.217Z,68.02
2023-07-17T23:45:02.712Z,68.89
2023-07-17T23:47:31.263Z,69.43
2023-07-17T23:49:59.211Z,70.61
2023-07-17T23:52:27.205Z,69.84
2023-07-17T23:54:55.405Z,69.93
2023-07-17T23:57:25.990Z,70.34
2023-07-17T23:59:53.793Z,70.26
